sensor_id;sensor_type;location;lat;lon;timestamp;P1;durP1;ratioP1;P2;durP2;ratioP2
4001;SDS011;2015;48.670;9.060;2022-09-03T00:00:35;5.63;;;5.10;;
4001;SDS011;2015;48.670;9.060;2022-09-03T00:03:23;5.93;;;4.50;;
4001;SDS011;2015;48.670;9.060;2022-09-03T00:08:47;4.77;;;4.37;;
4001;SDS011;2015;48.670;9.060;2022-09-03T00:14:45;5.73;;;4.87;;
4001;SDS011;2015;48.670;9.060;2022-09-03T00:17:24;5.20;;;4.90;;
4001;SDS011;2015;48.670;9.060;2022-09-03T00:20:09;4.93;;;4.60;;
4001;SDS011;2015;48.670;9.060;2022-09-03T00:22:52;5.33;;;5.03;;
4001;SDS011;2015;48.670;9.060;2022-09-03T00:25:27;5.10;;;4.80;;
4001;SDS011;2015;48.670;9.060;2022-09-03T00:28:19;5.10;;;4.80;;
4001;SDS011;2015;48.670;9.060;2022-09-03T00:31:40;5.23;;;4.83;;
4001;SDS011;2015;48.670;9.060;2022-09-03T00:34:05;4.87;;;4.40;;
4001;SDS011;2015;48.670;9.060;2022-09-03T00:36:45;4.30;;;4.10;;
4001;SDS011;2015;48.670;9.060;2022-09-03T00:39:18;5.80;;;5.43;;
4001;SDS011;2015;48.670;9.060;2022-09-03T00:45:00;6.13;;;5.50;;
4001;SDS011;2015;48.670;9.060;2022-09-03T00:48:02;5.00;;;4.70;;
4001;SDS011;2015;48.670;9.060;2022-09-03T00:53:23;5.13;;;4.63;;
4001;SDS011;2015;48.670;9.060;2022-09-03T00:59:23;4.40;;;4.20;;
4001;SDS011;2015;48.670;9.060;2022-09-03T01:07:49;4.90;;;4.60;;
4001;SDS011;2015;48.670;9.060;2022-09-03T01:10:37;4.50;;;4.20;;
4001;SDS011;2015;48.670;9.060;2022-09-03T01:16:50;5.60;;;4.90;;
4001;SDS011;2015;48.670;9.060;2022-09-03T01:28:27;5.60;;;5.10;;
4001;SDS011;2015;48.670;9.060;2022-09-03T01:33:55;4.30;;;4.00;;
4001;SDS011;2015;48.670;9.060;2022-09-03T01:36:51;4.20;;;3.80;;
4001;SDS011;2015;48.670;9.060;2022-09-03T01:51:22;4.00;;;3.80;;
4001;SDS011;2015;48.670;9.060;2022-09-03T02:00:07;5.10;;;4.90;;
4001;SDS011;2015;48.670;9.060;2022-09-03T02:02:46;5.30;;;5.00;;
4001;SDS011;2015;48.670;9.060;2022-09-03T02:05:22;4.77;;;4.57;;
4001;SDS011;2015;48.670;9.060;2022-09-03T02:15:52;4.83;;;4.53;;
4001;SDS011;2015;48.670;9.060;2022-09-03T02:18:29;5.23;;;4.83;;
4001;SDS011;2015;48.670;9.060;2022-09-03T02:21:06;4.53;;;4.33;;
4001;SDS011;2015;48.670;9.060;2022-09-03T02:23:39;5.03;;;4.67;;
4001;SDS011;2015;48.670;9.060;2022-09-03T02:26:12;5.00;;;4.70;;
4001;SDS011;2015;48.670;9.060;2022-09-03T02:28:48;4.30;;;4.10;;
4001;SDS011;2015;48.670;9.060;2022-09-03T02:31:22;4.90;;;4.60;;
4001;SDS011;2015;48.670;9.060;2022-09-03T02:33:55;4.40;;;4.20;;
4001;SDS011;2015;48.670;9.060;2022-09-03T02:36:29;5.30;;;4.93;;
4001;SDS011;2015;48.670;9.060;2022-09-03T02:39:03;5.23;;;4.93;;
4001;SDS011;2015;48.670;9.060;2022-09-03T02:41:35;5.53;;;5.23;;
4001;SDS011;2015;48.670;9.060;2022-09-03T02:44:08;4.80;;;4.60;;
4001;SDS011;2015;48.670;9.060;2022-09-03T02:46:57;5.00;;;4.70;;
4001;SDS011;2015;48.670;9.060;2022-09-03T02:49:31;4.70;;;4.50;;
4001;SDS011;2015;48.670;9.060;2022-09-03T02:52:04;6.30;;;5.07;;
4001;SDS011;2015;48.670;9.060;2022-09-03T02:54:42;5.30;;;4.77;;
4001;SDS011;2015;48.670;9.060;2022-09-03T02:57:15;5.10;;;4.80;;
4001;SDS011;2015;48.670;9.060;2022-09-03T02:59:57;5.43;;;5.10;;
4001;SDS011;2015;48.670;9.060;2022-09-03T03:02:29;5.00;;;4.60;;
4001;SDS011;2015;48.670;9.060;2022-09-03T03:05:01;5.27;;;4.97;;
4001;SDS011;2015;48.670;9.060;2022-09-03T03:07:35;5.70;;;5.30;;
4001;SDS011;2015;48.670;9.060;2022-09-03T03:10:09;6.07;;;4.53;;
4001;SDS011;2015;48.670;9.060;2022-09-03T03:12:42;5.10;;;4.80;;
4001;SDS011;2015;48.670;9.060;2022-09-03T03:15:15;5.53;;;5.03;;
4001;SDS011;2015;48.670;9.060;2022-09-03T03:17:47;5.87;;;5.47;;
4001;SDS011;2015;48.670;9.060;2022-09-03T03:20:18;5.73;;;5.43;;
4001;SDS011;2015;48.670;9.060;2022-09-03T03:22:50;6.80;;;5.53;;
4001;SDS011;2015;48.670;9.060;2022-09-03T03:25:22;6.03;;;5.60;;
4001;SDS011;2015;48.670;9.060;2022-09-03T03:27:54;5.43;;;5.13;;
4001;SDS011;2015;48.670;9.060;2022-09-03T03:30:27;7.27;;;5.83;;
4001;SDS011;2015;48.670;9.060;2022-09-03T03:32:58;9.60;;;5.83;;
4001;SDS011;2015;48.670;9.060;2022-09-03T03:35:31;6.97;;;6.37;;
4001;SDS011;2015;48.670;9.060;2022-09-03T03:38:03;5.90;;;5.50;;
4001;SDS011;2015;48.670;9.060;2022-09-03T03:40:36;6.13;;;5.63;;
4001;SDS011;2015;48.670;9.060;2022-09-03T03:43:08;5.70;;;5.40;;
4001;SDS011;2015;48.670;9.060;2022-09-03T03:45:40;7.03;;;6.40;;
4001;SDS011;2015;48.670;9.060;2022-09-03T03:48:12;5.80;;;5.50;;
4001;SDS011;2015;48.670;9.060;2022-09-03T03:50:44;5.77;;;5.47;;
4001;SDS011;2015;48.670;9.060;2022-09-03T03:53:16;6.10;;;5.80;;
4001;SDS011;2015;48.670;9.060;2022-09-03T03:55:58;6.03;;;5.37;;
4001;SDS011;2015;48.670;9.060;2022-09-03T03:58:32;6.60;;;6.30;;
4001;SDS011;2015;48.670;9.060;2022-09-03T04:01:08;6.40;;;5.90;;
4001;SDS011;2015;48.670;9.060;2022-09-03T04:03:41;5.53;;;5.23;;
4001;SDS011;2015;48.670;9.060;2022-09-03T04:06:15;6.53;;;5.80;;
4001;SDS011;2015;48.670;9.060;2022-09-03T04:08:50;6.93;;;6.43;;
4001;SDS011;2015;48.670;9.060;2022-09-03T04:11:23;6.70;;;6.27;;
4001;SDS011;2015;48.670;9.060;2022-09-03T04:13:55;6.80;;;6.50;;
4001;SDS011;2015;48.670;9.060;2022-09-03T04:16:27;7.60;;;6.90;;
4001;SDS011;2015;48.670;9.060;2022-09-03T04:18:59;6.57;;;5.93;;
4001;SDS011;2015;48.670;9.060;2022-09-03T04:21:31;10.40;;;6.87;;
4001;SDS011;2015;48.670;9.060;2022-09-03T04:24:04;6.57;;;6.17;;
4001;SDS011;2015;48.670;9.060;2022-09-03T04:26:36;6.57;;;6.20;;
4001;SDS011;2015;48.670;9.060;2022-09-03T04:29:09;6.63;;;6.30;;
4001;SDS011;2015;48.670;9.060;2022-09-03T04:31:41;7.00;;;6.50;;
4001;SDS011;2015;48.670;9.060;2022-09-03T04:34:33;8.00;;;7.30;;
4001;SDS011;2015;48.670;9.060;2022-09-03T04:37:05;7.10;;;6.60;;
4001;SDS011;2015;48.670;9.060;2022-09-03T04:39:37;6.20;;;5.73;;
4001;SDS011;2015;48.670;9.060;2022-09-03T04:42:09;6.83;;;6.43;;
4001;SDS011;2015;48.670;9.060;2022-09-03T04:44:41;6.50;;;5.90;;
4001;SDS011;2015;48.670;9.060;2022-09-03T04:47:12;6.53;;;5.93;;
4001;SDS011;2015;48.670;9.060;2022-09-03T04:49:45;6.37;;;6.07;;
4001;SDS011;2015;48.670;9.060;2022-09-03T04:52:17;6.50;;;6.10;;
4001;SDS011;2015;48.670;9.060;2022-09-03T04:54:49;6.10;;;5.70;;
4001;SDS011;2015;48.670;9.060;2022-09-03T04:57:21;6.73;;;6.13;;
4001;SDS011;2015;48.670;9.060;2022-09-03T04:59:53;6.57;;;6.17;;
4001;SDS011;2015;48.670;9.060;2022-09-03T05:02:25;6.60;;;6.20;;
4001;SDS011;2015;48.670;9.060;2022-09-03T05:04:57;7.10;;;6.43;;
4001;SDS011;2015;48.670;9.060;2022-09-03T05:07:29;7.87;;;7.33;;
4001;SDS011;2015;48.670;9.060;2022-09-03T05:10:08;6.67;;;6.37;;
4001;SDS011;2015;48.670;9.060;2022-09-03T05:12:57;6.17;;;5.30;;
4001;SDS011;2015;48.670;9.060;2022-09-03T05:15:31;6.70;;;6.20;;
4001;SDS011;2015;48.670;9.060;2022-09-03T05:18:03;7.90;;;7.40;;
4001;SDS011;2015;48.670;9.060;2022-09-03T05:20:35;7.23;;;6.77;;
4001;SDS011;2015;48.670;9.060;2022-09-03T05:23:06;7.30;;;6.90;;
4001;SDS011;2015;48.670;9.060;2022-09-03T05:25:38;7.37;;;6.50;;
4001;SDS011;2015;48.670;9.060;2022-09-03T05:28:10;6.00;;;5.70;;
4001;SDS011;2015;48.670;9.060;2022-09-03T05:30:43;10.70;;;6.60;;
4001;SDS011;2015;48.670;9.060;2022-09-03T05:33:14;6.90;;;6.40;;
4001;SDS011;2015;48.670;9.060;2022-09-03T05:35:46;7.40;;;6.70;;
4001;SDS011;2015;48.670;9.060;2022-09-03T05:38:18;7.33;;;6.83;;
4001;SDS011;2015;48.670;9.060;2022-09-03T05:40:50;6.67;;;6.20;;
4001;SDS011;2015;48.670;9.060;2022-09-03T05:43:22;7.37;;;6.93;;
4001;SDS011;2015;48.670;9.060;2022-09-03T05:45:57;6.83;;;6.20;;
4001;SDS011;2015;48.670;9.060;2022-09-03T05:48:34;7.27;;;6.87;;
4001;SDS011;2015;48.670;9.060;2022-09-03T05:51:08;7.03;;;6.68;;
4001;SDS011;2015;48.670;9.060;2022-09-03T05:53:46;8.80;;;8.00;;
4001;SDS011;2015;48.670;9.060;2022-09-03T05:56:19;7.07;;;6.57;;
4001;SDS011;2015;48.670;9.060;2022-09-03T05:58:53;7.70;;;6.97;;
4001;SDS011;2015;48.670;9.060;2022-09-03T06:01:29;7.00;;;6.60;;
4001;SDS011;2015;48.670;9.060;2022-09-03T06:04:06;7.60;;;7.10;;
4001;SDS011;2015;48.670;9.060;2022-09-03T06:06:41;7.43;;;7.00;;
4001;SDS011;2015;48.670;9.060;2022-09-03T06:09:15;6.47;;;6.17;;
4001;SDS011;2015;48.670;9.060;2022-09-03T06:11:48;7.70;;;7.10;;
4001;SDS011;2015;48.670;9.060;2022-09-03T06:14:21;7.47;;;6.97;;
4001;SDS011;2015;48.670;9.060;2022-09-03T06:16:53;7.17;;;6.63;;
4001;SDS011;2015;48.670;9.060;2022-09-03T06:19:27;7.37;;;6.80;;
4001;SDS011;2015;48.670;9.060;2022-09-03T06:21:58;7.90;;;7.20;;
4001;SDS011;2015;48.670;9.060;2022-09-03T06:24:30;6.83;;;6.50;;
4001;SDS011;2015;48.670;9.060;2022-09-03T06:27:03;8.30;;;7.70;;
4001;SDS011;2015;48.670;9.060;2022-09-03T06:29:36;8.70;;;8.00;;
4001;SDS011;2015;48.670;9.060;2022-09-03T06:32:09;7.43;;;6.70;;
4001;SDS011;2015;48.670;9.060;2022-09-03T06:34:40;7.53;;;7.10;;
4001;SDS011;2015;48.670;9.060;2022-09-03T06:37:13;7.73;;;7.20;;
4001;SDS011;2015;48.670;9.060;2022-09-03T06:39:44;7.03;;;6.53;;
4001;SDS011;2015;48.670;9.060;2022-09-03T06:42:16;7.03;;;6.63;;
4001;SDS011;2015;48.670;9.060;2022-09-03T06:44:48;7.60;;;7.10;;
4001;SDS011;2015;48.670;9.060;2022-09-03T06:47:21;8.17;;;7.57;;
4001;SDS011;2015;48.670;9.060;2022-09-03T06:49:53;8.37;;;7.87;;
4001;SDS011;2015;48.670;9.060;2022-09-03T06:52:25;7.17;;;6.70;;
4001;SDS011;2015;48.670;9.060;2022-09-03T06:54:57;7.47;;;7.00;;
4001;SDS011;2015;48.670;9.060;2022-09-03T06:57:29;7.47;;;7.07;;
4001;SDS011;2015;48.670;9.060;2022-09-03T07:00:01;7.37;;;6.87;;
4001;SDS011;2015;48.670;9.060;2022-09-03T07:02:33;8.30;;;7.60;;
4001;SDS011;2015;48.670;9.060;2022-09-03T07:05:05;9.10;;;8.20;;
4001;SDS011;2015;48.670;9.060;2022-09-03T07:07:38;7.80;;;7.30;;
4001;SDS011;2015;48.670;9.060;2022-09-03T07:10:10;7.73;;;7.20;;
4001;SDS011;2015;48.670;9.060;2022-09-03T07:12:46;7.73;;;7.00;;
4001;SDS011;2015;48.670;9.060;2022-09-03T07:15:18;6.57;;;6.13;;
4001;SDS011;2015;48.670;9.060;2022-09-03T07:17:50;7.60;;;7.00;;
4001;SDS011;2015;48.670;9.060;2022-09-03T07:20:21;6.20;;;5.83;;
4001;SDS011;2015;48.670;9.060;2022-09-03T07:22:54;7.30;;;6.70;;
4001;SDS011;2015;48.670;9.060;2022-09-03T07:25:26;7.30;;;6.80;;
4001;SDS011;2015;48.670;9.060;2022-09-03T07:27:58;5.97;;;5.57;;
4001;SDS011;2015;48.670;9.060;2022-09-03T07:30:30;6.67;;;6.27;;
4001;SDS011;2015;48.670;9.060;2022-09-03T07:33:02;7.20;;;6.70;;
4001;SDS011;2015;48.670;9.060;2022-09-03T07:35:35;6.33;;;5.90;;
4001;SDS011;2015;48.670;9.060;2022-09-03T07:38:07;6.30;;;5.80;;
4001;SDS011;2015;48.670;9.060;2022-09-03T07:40:39;8.50;;;6.73;;
4001;SDS011;2015;48.670;9.060;2022-09-03T07:43:11;6.97;;;6.27;;
4001;SDS011;2015;48.670;9.060;2022-09-03T07:45:48;7.30;;;6.83;;
4001;SDS011;2015;48.670;9.060;2022-09-03T07:48:20;6.90;;;6.50;;
4001;SDS011;2015;48.670;9.060;2022-09-03T07:50:56;7.40;;;6.80;;
4001;SDS011;2015;48.670;9.060;2022-09-03T07:53:31;7.03;;;6.63;;
4001;SDS011;2015;48.670;9.060;2022-09-03T07:56:04;6.30;;;5.90;;
4001;SDS011;2015;48.670;9.060;2022-09-03T07:58:41;6.57;;;6.03;;
4001;SDS011;2015;48.670;9.060;2022-09-03T08:01:14;6.90;;;6.40;;
4001;SDS011;2015;48.670;9.060;2022-09-03T08:03:51;6.57;;;6.07;;
4001;SDS011;2015;48.670;9.060;2022-09-03T08:06:24;7.43;;;6.83;;
4001;SDS011;2015;48.670;9.060;2022-09-03T08:08:58;5.50;;;5.20;;
4001;SDS011;2015;48.670;9.060;2022-09-03T08:11:36;6.77;;;6.37;;
4001;SDS011;2015;48.670;9.060;2022-09-03T08:14:11;6.23;;;5.90;;
4001;SDS011;2015;48.670;9.060;2022-09-03T08:16:44;6.33;;;5.93;;
4001;SDS011;2015;48.670;9.060;2022-09-03T08:19:18;7.00;;;6.60;;
4001;SDS011;2015;48.670;9.060;2022-09-03T08:21:50;6.77;;;6.17;;
4001;SDS011;2015;48.670;9.060;2022-09-03T08:24:22;6.70;;;6.10;;
4001;SDS011;2015;48.670;9.060;2022-09-03T08:26:55;6.60;;;6.00;;
4001;SDS011;2015;48.670;9.060;2022-09-03T08:29:27;6.50;;;6.00;;
4001;SDS011;2015;48.670;9.060;2022-09-03T08:31:59;6.60;;;6.20;;
4001;SDS011;2015;48.670;9.060;2022-09-03T08:34:35;5.63;;;5.33;;
4001;SDS011;2015;48.670;9.060;2022-09-03T08:37:07;6.47;;;5.97;;
4001;SDS011;2015;48.670;9.060;2022-09-03T08:39:40;6.57;;;6.17;;
4001;SDS011;2015;48.670;9.060;2022-09-03T08:42:20;6.43;;;5.83;;
4001;SDS011;2015;48.670;9.060;2022-09-03T08:45:07;5.50;;;5.20;;
4001;SDS011;2015;48.670;9.060;2022-09-03T08:47:56;6.10;;;5.60;;
4001;SDS011;2015;48.670;9.060;2022-09-03T08:50:35;5.30;;;4.90;;
4001;SDS011;2015;48.670;9.060;2022-09-03T08:53:14;6.47;;;6.07;;
4001;SDS011;2015;48.670;9.060;2022-09-03T08:56:08;6.20;;;5.90;;
4001;SDS011;2015;48.670;9.060;2022-09-03T08:58:43;7.80;;;7.30;;
4001;SDS011;2015;48.670;9.060;2022-09-03T09:04:16;5.60;;;5.30;;
4001;SDS011;2015;48.670;9.060;2022-09-03T09:07:08;5.10;;;4.70;;
4001;SDS011;2015;48.670;9.060;2022-09-03T09:09:49;6.73;;;5.20;;
4001;SDS011;2015;48.670;9.060;2022-09-03T09:12:45;4.80;;;4.40;;
4001;SDS011;2015;48.670;9.060;2022-09-03T09:15:40;6.00;;;5.50;;
4001;SDS011;2015;48.670;9.060;2022-09-03T09:21:15;4.80;;;4.50;;
4001;SDS011;2015;48.670;9.060;2022-09-03T09:24:18;5.90;;;5.33;;
4001;SDS011;2015;48.670;9.060;2022-09-03T09:26:58;5.40;;;5.10;;
4001;SDS011;2015;48.670;9.060;2022-09-03T09:29:32;5.23;;;4.93;;
4001;SDS011;2015;48.670;9.060;2022-09-03T09:32:08;5.10;;;4.80;;
4001;SDS011;2015;48.670;9.060;2022-09-03T09:34:42;5.27;;;4.97;;
4001;SDS011;2015;48.670;9.060;2022-09-03T09:37:20;4.83;;;4.53;;
4001;SDS011;2015;48.670;9.060;2022-09-03T09:39:53;5.23;;;4.93;;
4001;SDS011;2015;48.670;9.060;2022-09-03T09:42:27;5.00;;;4.70;;
4001;SDS011;2015;48.670;9.060;2022-09-03T09:45:08;4.53;;;4.32;;
4001;SDS011;2015;48.670;9.060;2022-09-03T09:47:41;4.65;;;4.35;;
4001;SDS011;2015;48.670;9.060;2022-09-03T09:50:17;3.95;;;3.70;;
4001;SDS011;2015;48.670;9.060;2022-09-03T09:53:00;4.37;;;4.17;;
4001;SDS011;2015;48.670;9.060;2022-09-03T09:55:54;4.70;;;4.40;;
4001;SDS011;2015;48.670;9.060;2022-09-03T09:58:29;4.43;;;4.23;;
4001;SDS011;2015;48.670;9.060;2022-09-03T10:01:10;4.50;;;4.20;;
4001;SDS011;2015;48.670;9.060;2022-09-03T10:03:55;4.23;;;3.93;;
4001;SDS011;2015;48.670;9.060;2022-09-03T10:06:32;5.30;;;4.97;;
4001;SDS011;2015;48.670;9.060;2022-09-03T10:09:25;4.17;;;3.70;;
4001;SDS011;2015;48.670;9.060;2022-09-03T10:15:00;4.63;;;4.33;;
4001;SDS011;2015;48.670;9.060;2022-09-03T10:20:33;4.83;;;4.53;;
4001;SDS011;2015;48.670;9.060;2022-09-03T10:23:20;4.70;;;4.50;;
4001;SDS011;2015;48.670;9.060;2022-09-03T10:28:41;4.45;;;4.15;;
4001;SDS011;2015;48.670;9.060;2022-09-03T10:39:51;4.35;;;4.15;;
4001;SDS011;2015;48.670;9.060;2022-09-03T10:42:40;4.40;;;4.20;;
4001;SDS011;2015;48.670;9.060;2022-09-03T10:46:13;4.57;;;4.25;;
4001;SDS011;2015;48.670;9.060;2022-09-03T10:48:29;5.13;;;4.80;;
4001;SDS011;2015;48.670;9.060;2022-09-03T11:00:08;4.30;;;4.10;;
4001;SDS011;2015;48.670;9.060;2022-09-03T11:05:39;5.77;;;5.27;;
4001;SDS011;2015;48.670;9.060;2022-09-03T11:08:22;6.27;;;5.70;;
4001;SDS011;2015;48.670;9.060;2022-09-03T11:11:12;6.50;;;5.07;;
4001;SDS011;2015;48.670;9.060;2022-09-03T11:14:06;6.40;;;5.80;;
4001;SDS011;2015;48.670;9.060;2022-09-03T11:16:47;5.60;;;5.30;;
4001;SDS011;2015;48.670;9.060;2022-09-03T11:19:27;6.47;;;5.93;;
4001;SDS011;2015;48.670;9.060;2022-09-03T11:22:10;6.43;;;6.03;;
4001;SDS011;2015;48.670;9.060;2022-09-03T11:24:49;6.37;;;5.87;;
4001;SDS011;2015;48.670;9.060;2022-09-03T11:30:12;6.23;;;5.90;;
4001;SDS011;2015;48.670;9.060;2022-09-03T11:32:57;7.20;;;6.50;;
4001;SDS011;2015;48.670;9.060;2022-09-03T11:41:22;7.33;;;6.27;;
4001;SDS011;2015;48.670;9.060;2022-09-03T11:44:17;7.03;;;6.57;;
4001;SDS011;2015;48.670;9.060;2022-09-03T11:46:56;8.33;;;7.63;;
4001;SDS011;2015;48.670;9.060;2022-09-03T11:49:30;8.27;;;6.63;;
4001;SDS011;2015;48.670;9.060;2022-09-03T11:52:03;7.87;;;7.20;;
4001;SDS011;2015;48.670;9.060;2022-09-03T11:54:43;8.30;;;7.70;;
4001;SDS011;2015;48.670;9.060;2022-09-03T11:57:21;9.90;;;8.80;;
4001;SDS011;2015;48.670;9.060;2022-09-03T12:00:07;10.90;;;9.90;;
4001;SDS011;2015;48.670;9.060;2022-09-03T12:02:43;11.37;;;10.00;;
4001;SDS011;2015;48.670;9.060;2022-09-03T12:05:40;9.43;;;6.63;;
4001;SDS011;2015;48.670;9.060;2022-09-03T12:11:28;5.27;;;4.77;;
4001;SDS011;2015;48.670;9.060;2022-09-03T12:16:54;8.65;;;4.10;;
4001;SDS011;2015;48.670;9.060;2022-09-03T12:19:51;7.80;;;5.10;;
4001;SDS011;2015;48.670;9.060;2022-09-03T12:22:28;3.83;;;3.27;;
4001;SDS011;2015;48.670;9.060;2022-09-03T12:25:12;8.10;;;2.90;;
4001;SDS011;2015;48.670;9.060;2022-09-03T12:27:45;4.03;;;3.27;;
4001;SDS011;2015;48.670;9.060;2022-09-03T12:30:22;3.97;;;3.60;;
4001;SDS011;2015;48.670;9.060;2022-09-03T12:33:02;3.67;;;2.90;;
4001;SDS011;2015;48.670;9.060;2022-09-03T12:35:39;5.13;;;3.90;;
4001;SDS011;2015;48.670;9.060;2022-09-03T12:38:31;3.23;;;2.93;;
4001;SDS011;2015;48.670;9.060;2022-09-03T12:41:25;5.00;;;3.43;;
4001;SDS011;2015;48.670;9.060;2022-09-03T12:44:01;8.27;;;3.37;;
4001;SDS011;2015;48.670;9.060;2022-09-03T12:46:33;3.57;;;3.37;;
4001;SDS011;2015;48.670;9.060;2022-09-03T12:49:05;4.03;;;3.73;;
4001;SDS011;2015;48.670;9.060;2022-09-03T12:51:59;4.23;;;3.07;;
4001;SDS011;2015;48.670;9.060;2022-09-03T12:54:46;2.80;;;2.60;;
4001;SDS011;2015;48.670;9.060;2022-09-03T12:57:36;3.50;;;3.30;;
4001;SDS011;2015;48.670;9.060;2022-09-03T13:00:13;4.80;;;3.67;;
4001;SDS011;2015;48.670;9.060;2022-09-03T13:02:55;3.40;;;3.20;;
4001;SDS011;2015;48.670;9.060;2022-09-03T13:05:42;2.17;;;2.07;;
4001;SDS011;2015;48.670;9.060;2022-09-03T13:08:21;3.17;;;2.97;;
4001;SDS011;2015;48.670;9.060;2022-09-03T13:10:57;2.53;;;2.33;;
4001;SDS011;2015;48.670;9.060;2022-09-03T13:13:34;3.78;;;2.22;;
4001;SDS011;2015;48.670;9.060;2022-09-03T13:19:27;3.60;;;3.20;;
4001;SDS011;2015;48.670;9.060;2022-09-03T13:27:22;2.97;;;2.77;;
4001;SDS011;2015;48.670;9.060;2022-09-03T13:30:08;3.47;;;2.60;;
4001;SDS011;2015;48.670;9.060;2022-09-03T13:38:14;2.70;;;2.50;;
4001;SDS011;2015;48.670;9.060;2022-09-03T13:46:10;4.60;;;3.00;;
4001;SDS011;2015;48.670;9.060;2022-09-03T13:58:27;3.70;;;3.50;;
4001;SDS011;2015;48.670;9.060;2022-09-03T14:01:11;3.80;;;3.50;;
4001;SDS011;2015;48.670;9.060;2022-09-03T14:03:53;3.17;;;2.87;;
4001;SDS011;2015;48.670;9.060;2022-09-03T14:11:56;2.50;;;2.40;;
4001;SDS011;2015;48.670;9.060;2022-09-03T14:20:25;3.40;;;3.20;;
4001;SDS011;2015;48.670;9.060;2022-09-03T14:23:02;3.30;;;2.80;;
4001;SDS011;2015;48.670;9.060;2022-09-03T14:25:52;3.10;;;2.90;;
4001;SDS011;2015;48.670;9.060;2022-09-03T14:39:45;2.60;;;2.40;;
4001;SDS011;2015;48.670;9.060;2022-09-03T14:51:18;3.40;;;3.20;;
4001;SDS011;2015;48.670;9.060;2022-09-03T15:03:06;4.07;;;3.80;;
4001;SDS011;2015;48.670;9.060;2022-09-03T15:08:46;2.87;;;2.57;;
4001;SDS011;2015;48.670;9.060;2022-09-03T15:11:57;3.10;;;2.90;;
4001;SDS011;2015;48.670;9.060;2022-09-03T15:14:45;3.03;;;2.80;;
4001;SDS011;2015;48.670;9.060;2022-09-03T15:17:27;2.93;;;2.83;;
4001;SDS011;2015;48.670;9.060;2022-09-03T15:20:25;2.97;;;2.77;;
4001;SDS011;2015;48.670;9.060;2022-09-03T15:36:53;3.03;;;2.70;;
4001;SDS011;2015;48.670;9.060;2022-09-03T15:39:30;3.20;;;2.60;;
4001;SDS011;2015;48.670;9.060;2022-09-03T15:42:06;2.77;;;2.57;;
4001;SDS011;2015;48.670;9.060;2022-09-03T15:44:46;3.00;;;2.80;;
4001;SDS011;2015;48.670;9.060;2022-09-03T15:50:30;3.33;;;3.13;;
4001;SDS011;2015;48.670;9.060;2022-09-03T15:59:24;3.00;;;2.77;;
4001;SDS011;2015;48.670;9.060;2022-09-03T16:02:00;3.28;;;3.08;;
4001;SDS011;2015;48.670;9.060;2022-09-03T16:04:41;3.30;;;2.97;;
4001;SDS011;2015;48.670;9.060;2022-09-03T16:10:13;2.87;;;2.70;;
4001;SDS011;2015;48.670;9.060;2022-09-03T16:15:59;3.97;;;3.63;;
4001;SDS011;2015;48.670;9.060;2022-09-03T16:26:41;4.10;;;3.80;;
4001;SDS011;2015;48.670;9.060;2022-09-03T16:29:25;3.30;;;3.00;;
4001;SDS011;2015;48.670;9.060;2022-09-03T16:37:27;3.30;;;3.10;;
4001;SDS011;2015;48.670;9.060;2022-09-03T16:40:13;2.60;;;2.50;;
4001;SDS011;2015;48.670;9.060;2022-09-03T16:43:12;3.53;;;3.33;;
4001;SDS011;2015;48.670;9.060;2022-09-03T16:46:33;4.27;;;2.80;;
4001;SDS011;2015;48.670;9.060;2022-09-03T16:55:30;3.97;;;3.60;;
4001;SDS011;2015;48.670;9.060;2022-09-03T16:58:23;3.97;;;3.50;;
4001;SDS011;2015;48.670;9.060;2022-09-03T17:16:22;3.23;;;3.03;;
4001;SDS011;2015;48.670;9.060;2022-09-03T17:19:00;3.30;;;3.10;;
4001;SDS011;2015;48.670;9.060;2022-09-03T17:22:16;3.00;;;2.80;;
4001;SDS011;2015;48.670;9.060;2022-09-03T17:30:56;3.30;;;3.10;;
4001;SDS011;2015;48.670;9.060;2022-09-03T17:33:37;3.50;;;3.30;;
4001;SDS011;2015;48.670;9.060;2022-09-03T17:36:23;3.60;;;3.40;;
4001;SDS011;2015;48.670;9.060;2022-09-03T17:51:30;3.13;;;2.93;;
4001;SDS011;2015;48.670;9.060;2022-09-03T17:54:06;4.30;;;2.90;;
4001;SDS011;2015;48.670;9.060;2022-09-03T17:57:01;3.53;;;3.27;;
4001;SDS011;2015;48.670;9.060;2022-09-03T18:02:42;4.53;;;3.40;;
4001;SDS011;2015;48.670;9.060;2022-09-03T18:05:28;3.77;;;3.57;;
4001;SDS011;2015;48.670;9.060;2022-09-03T18:09:06;2.53;;;2.43;;
4001;SDS011;2015;48.670;9.060;2022-09-03T18:11:33;3.63;;;3.30;;
4001;SDS011;2015;48.670;9.060;2022-09-03T18:14:14;3.50;;;3.20;;
4001;SDS011;2015;48.670;9.060;2022-09-03T18:17:09;6.70;;;2.83;;
4001;SDS011;2015;48.670;9.060;2022-09-03T18:19:51;3.78;;;3.28;;
4001;SDS011;2015;48.670;9.060;2022-09-03T18:25:42;4.30;;;3.90;;
4001;SDS011;2015;48.670;9.060;2022-09-03T18:28:37;7.17;;;6.67;;
4001;SDS011;2015;48.670;9.060;2022-09-03T18:31:31;9.67;;;8.97;;
4001;SDS011;2015;48.670;9.060;2022-09-03T18:34:29;9.97;;;9.17;;
4001;SDS011;2015;48.670;9.060;2022-09-03T18:37:22;3.97;;;3.67;;
4001;SDS011;2015;48.670;9.060;2022-09-03T18:40:18;4.03;;;3.83;;
4001;SDS011;2015;48.670;9.060;2022-09-03T18:43:31;3.40;;;3.20;;
4001;SDS011;2015;48.670;9.060;2022-09-03T19:05:56;3.50;;;3.30;;
4001;SDS011;2015;48.670;9.060;2022-09-03T19:15:48;3.23;;;2.83;;
4001;SDS011;2015;48.670;9.060;2022-09-03T19:21:51;4.97;;;2.87;;
4001;SDS011;2015;48.670;9.060;2022-09-03T19:24:47;3.47;;;3.27;;
4001;SDS011;2015;48.670;9.060;2022-09-03T19:52:40;3.17;;;2.90;;
4001;SDS011;2015;48.670;9.060;2022-09-03T19:55:45;3.37;;;3.17;;
4001;SDS011;2015;48.670;9.060;2022-09-03T19:58:45;3.93;;;3.63;;
4001;SDS011;2015;48.670;9.060;2022-09-03T20:01:40;4.90;;;4.40;;
4001;SDS011;2015;48.670;9.060;2022-09-03T20:04:34;6.07;;;3.97;;
4001;SDS011;2015;48.670;9.060;2022-09-03T20:07:32;4.13;;;3.83;;
4001;SDS011;2015;48.670;9.060;2022-09-03T20:10:24;3.80;;;3.50;;
4001;SDS011;2015;48.670;9.060;2022-09-03T20:13:02;3.25;;;3.05;;
4001;SDS011;2015;48.670;9.060;2022-09-03T20:21:38;6.80;;;3.40;;
4001;SDS011;2015;48.670;9.060;2022-09-03T20:24:40;4.13;;;3.60;;
4001;SDS011;2015;48.670;9.060;2022-09-03T20:27:42;4.20;;;3.70;;
4001;SDS011;2015;48.670;9.060;2022-09-03T20:30:39;4.30;;;4.00;;
4001;SDS011;2015;48.670;9.060;2022-09-03T20:36:41;3.93;;;3.63;;
4001;SDS011;2015;48.670;9.060;2022-09-03T20:39:32;3.27;;;3.07;;
4001;SDS011;2015;48.670;9.060;2022-09-03T20:42:13;4.28;;;3.47;;
4001;SDS011;2015;48.670;9.060;2022-09-03T20:45:19;9.10;;;4.10;;
4001;SDS011;2015;48.670;9.060;2022-09-03T20:50:41;4.43;;;4.03;;
4001;SDS011;2015;48.670;9.060;2022-09-03T20:55:56;4.90;;;4.60;;
4001;SDS011;2015;48.670;9.060;2022-09-03T20:58:52;5.13;;;4.73;;
4001;SDS011;2015;48.670;9.060;2022-09-03T21:10:37;3.57;;;3.37;;
4001;SDS011;2015;48.670;9.060;2022-09-03T21:13:49;4.00;;;3.70;;
4001;SDS011;2015;48.670;9.060;2022-09-03T21:16:36;4.77;;;3.77;;
4001;SDS011;2015;48.670;9.060;2022-09-03T21:25:03;9.67;;;3.63;;
4001;SDS011;2015;48.670;9.060;2022-09-03T21:27:51;4.80;;;4.37;;
4001;SDS011;2015;48.670;9.060;2022-09-03T21:30:28;6.30;;;3.53;;
4001;SDS011;2015;48.670;9.060;2022-09-03T21:33:09;4.67;;;4.27;;
4001;SDS011;2015;48.670;9.060;2022-09-03T21:35:59;6.30;;;5.77;;
4001;SDS011;2015;48.670;9.060;2022-09-03T21:38:37;4.83;;;4.43;;
4001;SDS011;2015;48.670;9.060;2022-09-03T21:43:59;4.73;;;4.10;;
4001;SDS011;2015;48.670;9.060;2022-09-03T21:46:53;3.57;;;3.33;;
4001;SDS011;2015;48.670;9.060;2022-09-03T21:52:24;4.67;;;4.27;;
4001;SDS011;2015;48.670;9.060;2022-09-03T21:55:17;4.37;;;4.00;;
4001;SDS011;2015;48.670;9.060;2022-09-03T21:58:03;4.60;;;4.20;;
4001;SDS011;2015;48.670;9.060;2022-09-03T22:00:46;4.93;;;4.57;;
4001;SDS011;2015;48.670;9.060;2022-09-03T22:03:21;4.07;;;3.87;;
4001;SDS011;2015;48.670;9.060;2022-09-03T22:05:56;5.13;;;4.73;;
4001;SDS011;2015;48.670;9.060;2022-09-03T22:14:36;4.70;;;4.40;;
4001;SDS011;2015;48.670;9.060;2022-09-03T22:17:26;4.97;;;4.57;;
4001;SDS011;2015;48.670;9.060;2022-09-03T22:20:08;4.73;;;4.43;;
4001;SDS011;2015;48.670;9.060;2022-09-03T22:28:15;4.30;;;3.90;;
4001;SDS011;2015;48.670;9.060;2022-09-03T22:33:54;4.63;;;4.13;;
4001;SDS011;2015;48.670;9.060;2022-09-03T22:37:00;5.33;;;4.83;;
4001;SDS011;2015;48.670;9.060;2022-09-03T22:39:37;5.83;;;4.10;;
4001;SDS011;2015;48.670;9.060;2022-09-03T22:51:27;5.27;;;4.87;;
4001;SDS011;2015;48.670;9.060;2022-09-03T22:54:12;4.87;;;4.47;;
4001;SDS011;2015;48.670;9.060;2022-09-03T22:57:08;8.03;;;5.10;;
4001;SDS011;2015;48.670;9.060;2022-09-03T22:59:44;4.60;;;4.30;;